Time;durP1;ratioP1;P1;durP2;ratioP2;P2;SDS_P1;SDS_P2;PMS_P1;PMS_P2;Temp;Humidity;BMP_temperature;BMP_pressure;BME280_temperature;BME280_humidity;BME280_pressure;Samples;Min_cycle;Max_cycle;Signal;HPM_P1;HPM_P2
2022/07/18 00:02:29;;;;;;;0.50;0.50;;;;;;;20.86;100.00;95819.16;5134095;27;20449;-58
2022/07/18 00:04:57;;;;;;;0.50;0.40;;;;;;;20.99;100.00;95820.06;5134149;27;20462;-57
2022/07/18 00:07:26;;;;;;;0.40;0.30;;;;;;;20.53;100.00;95761.56;5133644;27;20506;-57
2022/07/18 00:09:54;;;;;;;0.40;0.20;;;;;;;20.95;100.00;95818.34;5133576;27;20962;-57
2022/07/18 00:12:22;;;;;;;0.40;0.30;;;;;;;21.18;100.00;95823.16;5133576;27;20430;-57
2022/07/18 00:14:51;;;;;;;0.40;0.20;;;;;;;21.31;100.00;95816.78;5133350;27;20466;-57
2022/07/18 00:17:20;;;;;;;0.50;0.33;;;;;;;21.25;100.00;95818.06;5133181;27;20932;-58
2022/07/18 00:19:49;;;;;;;0.50;0.40;;;;;;;21.03;100.00;95820.97;5133100;27;20466;-57
2022/07/18 00:22:18;;;;;;;0.47;0.33;;;;;;;21.07;100.00;95813.88;5133010;27;20502;-57
2022/07/18 00:24:46;;;;;;;0.50;0.40;;;;;;;20.98;100.00;95813.06;5133804;27;20455;-57
2022/07/18 00:27:15;;;;;;;0.50;0.30;;;;;;;20.78;100.00;95816.47;5133258;27;20882;-57
2022/07/18 00:29:43;;;;;;;0.50;0.37;;;;;;;20.90;100.00;95814.69;5133266;27;20458;-57
2022/07/18 00:32:11;;;;;;;0.40;0.30;;;;;;;20.81;100.00;95823.91;5133112;27;20991;-57
2022/07/18 00:34:40;;;;;;;0.40;0.30;;;;;;;20.74;100.00;95820.91;5133476;27;20507;-57
2022/07/18 00:37:10;;;;;;;0.40;0.20;;;;;;;20.53;100.00;95820.00;5133113;27;20889;-57
2022/07/18 00:39:38;;;;;;;0.50;0.30;;;;;;;20.04;100.00;95824.75;5133224;27;20557;-57
2022/07/18 00:42:06;;;;;;;0.50;0.30;;;;;;;20.06;100.00;95821.78;5133014;27;20497;-57
2022/07/18 00:44:35;;;;;;;0.50;0.40;;;;;;;20.47;100.00;95813.19;5132822;27;20857;-57
2022/07/18 00:47:03;;;;;;;0.40;0.30;;;;;;;20.79;100.00;95823.44;5132959;27;20626;-56
2022/07/18 00:49:32;;;;;;;0.77;0.77;;;;;;;20.80;100.00;95816.94;5132893;27;20415;-57
2022/07/18 00:52:00;;;;;;;0.50;0.30;;;;;;;20.92;100.00;95822.47;5133457;27;20418;-57
2022/07/18 00:54:32;;;;;;;0.47;0.33;;;;;;;20.47;100.00;95832.84;5132844;27;20513;-57
2022/07/18 00:57:01;;;;;;;0.60;0.60;;;;;;;20.66;100.00;95836.00;5132833;27;20513;-57
2022/07/18 01:02:12;;;;;;;0.40;0.27;;;;;;;20.72;100.00;95833.94;5131911;27;20967;-57
2022/07/18 01:04:41;;;;;;;0.50;0.43;;;;;;;20.76;100.00;95840.25;5132659;27;20442;-56
2022/07/18 01:07:10;;;;;;;0.40;0.30;;;;;;;20.78;100.00;95832.63;5132542;27;20887;-57
2022/07/18 01:09:40;;;;;;;0.50;0.30;;;;;;;20.79;100.00;95837.72;5132474;27;20518;-57
2022/07/18 01:12:09;;;;;;;0.77;0.70;;;;;;;20.74;100.00;95839.78;5131959;27;20517;-57
2022/07/18 01:14:38;;;;;;;0.40;0.30;;;;;;;20.73;100.00;95830.91;5132485;27;20426;-57
2022/07/18 01:17:14;;;;;;;0.50;0.47;;;;;;;20.31;100.00;95839.84;5132249;27;20466;-57
2022/07/18 01:19:43;;;;;;;0.40;0.30;;;;;;;20.40;100.00;95843.31;5131614;27;20576;-57
2022/07/18 01:22:15;;;;;;;0.50;0.30;;;;;;;20.53;100.00;95838.84;5131654;27;21006;-57
2022/07/18 01:24:43;;;;;;;0.40;0.30;;;;;;;20.60;100.00;95841.84;5131376;28;21067;-57
2022/07/18 01:27:15;;;;;;;0.50;0.40;;;;;;;20.46;100.00;95846.63;5135108;27;20908;-57
2022/07/18 01:29:44;;;;;;;0.50;0.40;;;;;;;19.92;100.00;95810.34;5139391;27;20505;-56
2022/07/18 01:32:13;;;;;;;1.80;1.70;;;;;;;20.22;100.00;95845.19;5138365;27;20524;-57
2022/07/18 01:34:42;;;;;;;0.40;0.30;;;;;;;20.37;100.00;95843.13;5138882;27;20560;-56
2022/07/18 01:37:11;;;;;;;0.40;0.27;;;;;;;20.36;100.00;95846.97;5139386;27;20486;-57
2022/07/18 01:39:41;;;;;;;0.40;0.20;;;;;;;20.32;100.00;95846.00;5139343;27;20612;-57
2022/07/18 01:42:10;;;;;;;0.47;0.40;;;;;;;20.27;100.00;95828.91;5139357;27;20450;-56
2022/07/18 01:44:40;;;;;;;0.80;0.50;;;;;;;20.25;100.00;95841.09;5139025;27;20556;-57
2022/07/18 01:47:10;;;;;;;0.47;0.37;;;;;;;20.28;100.00;95835.09;5138990;27;20465;-56
2022/07/18 01:49:39;;;;;;;0.50;0.30;;;;;;;20.32;100.00;95837.91;5139294;27;20509;-56
2022/07/18 01:52:08;;;;;;;0.50;0.30;;;;;;;20.08;100.00;95836.50;5139328;27;20508;-57
2022/07/18 01:54:38;;;;;;;0.50;0.30;;;;;;;20.04;100.00;95840.09;5138929;27;20466;-57
2022/07/18 01:57:08;;;;;;;0.67;0.67;;;;;;;19.87;100.00;95846.28;5138917;27;20466;-57
2022/07/18 01:59:37;;;;;;;0.40;0.20;;;;;;;20.06;100.00;95840.59;5138829;27;20911;-57
2022/07/18 02:02:06;;;;;;;0.47;0.40;;;;;;;20.08;100.00;95847.25;5138867;27;20452;-57
2022/07/18 02:07:20;;;;;;;0.50;0.30;;;;;;;20.13;100.00;95855.19;5138520;27;20427;-56
2022/07/18 02:09:48;;;;;;;1.17;0.30;;;;;;;19.76;100.00;95854.97;5142425;27;20422;-56
2022/07/18 02:12:18;;;;;;;0.50;0.33;;;;;;;19.22;100.00;95789.81;5139027;27;20479;-56
2022/07/18 02:14:47;;;;;;;0.40;0.30;;;;;;;19.78;100.00;95861.63;5138765;27;20426;-56
2022/07/18 02:17:15;;;;;;;0.53;0.50;;;;;;;19.95;100.00;95858.16;5138975;27;20558;-56
2022/07/18 02:19:44;;;;;;;0.40;0.30;;;;;;;20.04;100.00;95858.94;5138979;27;20470;-56
2022/07/18 02:22:12;;;;;;;0.40;0.30;;;;;;;20.10;100.00;95849.63;5138858;27;20454;-56
2022/07/18 02:24:41;;;;;;;0.40;0.20;;;;;;;20.14;100.00;95864.81;5139069;27;20477;-56
2022/07/18 02:27:11;;;;;;;0.40;0.30;;;;;;;20.08;100.00;95862.59;5138725;27;20518;-56
2022/07/18 02:29:41;;;;;;;0.40;0.30;;;;;;;20.04;100.00;95862.44;5138720;27;20529;-56
2022/07/18 02:32:10;;;;;;;0.50;0.30;;;;;;;20.01;100.00;95857.69;5138719;27;20501;-56
2022/07/18 02:34:38;;;;;;;0.50;0.50;;;;;;;19.97;100.00;95856.72;5138559;27;20521;-57
2022/07/18 02:37:06;;;;;;;0.50;0.40;;;;;;;20.02;100.00;95859.28;5138442;27;20422;-56
2022/07/18 02:39:35;;;;;;;0.40;0.30;;;;;;;19.99;100.00;95854.50;5134635;27;20480;-56
2022/07/18 02:42:04;;;;;;;0.40;0.20;;;;;;;20.01;100.00;95873.81;5135641;27;20426;-56
2022/07/18 02:44:32;;;;;;;0.50;0.33;;;;;;;20.06;100.00;95872.91;5135343;27;20908;-56
2022/07/18 02:47:03;;;;;;;0.50;0.40;;;;;;;19.72;100.00;95880.91;5135374;27;20442;-56
2022/07/18 02:49:31;;;;;;;0.50;0.47;;;;;;;19.79;100.00;95873.16;5135053;27;20901;-56
2022/07/18 02:52:02;;;;;;;0.40;0.27;;;;;;;19.13;100.00;95794.34;5135564;27;20449;-56
2022/07/18 02:54:32;;;;;;;0.40;0.30;;;;;;;19.46;100.00;95889.69;5135554;27;20853;-56
2022/07/18 02:57:01;;;;;;;0.40;0.30;;;;;;;19.31;100.00;95865.06;5135102;27;20910;-56
2022/07/18 02:59:29;;;;;;;0.40;0.20;;;;;;;19.68;100.00;95883.44;5135196;27;20495;-56
2022/07/18 03:01:58;;;;;;;0.40;0.30;;;;;;;19.85;100.00;95891.53;5135025;27;20415;-56
2022/07/18 03:04:28;;;;;;;0.40;0.30;;;;;;;19.94;100.00;95889.66;5134844;27;20522;-56
2022/07/18 03:06:57;;;;;;;0.50;0.30;;;;;;;19.18;100.00;95807.66;5135129;27;20501;-56
2022/07/18 03:09:27;;;;;;;0.40;0.30;;;;;;;19.38;100.00;95895.81;5134752;27;20477;-56
2022/07/18 03:11:56;;;;;;;0.50;0.40;;;;;;;19.68;100.00;95888.81;5135059;27;20446;-56
2022/07/18 03:14:24;;;;;;;1.13;0.50;;;;;;;19.80;100.00;95886.31;5134724;27;20470;-56
2022/07/18 03:16:53;;;;;;;0.60;0.40;;;;;;;19.08;100.00;95895.78;5134696;27;20470;-56
2022/07/18 03:19:21;;;;;;;0.60;0.40;;;;;;;19.35;100.00;95893.75;5134862;27;20959;-56
2022/07/18 03:21:51;;;;;;;4.97;1.23;;;;;;;19.63;100.00;95888.97;5135049;27;20496;-56
2022/07/18 03:24:20;;;;;;;0.50;0.30;;;;;;;19.78;100.00;95882.34;5134944;27;20852;-56
2022/07/18 03:26:48;;;;;;;0.50;0.33;;;;;;;19.92;100.00;95893.75;5134506;27;20514;-56
2022/07/18 03:29:16;;;;;;;0.40;0.30;;;;;;;19.98;100.00;95897.91;5134523;27;20787;-56
2022/07/18 03:31:45;;;;;;;0.50;0.40;;;;;;;19.93;100.00;95893.47;5134777;27;20497;-56
2022/07/18 03:34:13;;;;;;;0.40;0.30;;;;;;;19.54;100.00;95901.56;5134676;27;20531;-56
2022/07/18 03:36:42;;;;;;;0.50;0.40;;;;;;;19.71;100.00;95900.84;5134576;27;20873;-56
2022/07/18 03:39:13;;;;;;;0.83;0.80;;;;;;;19.76;100.00;95893.41;5133845;27;20790;-56
2022/07/18 03:41:42;;;;;;;0.70;0.70;;;;;;;19.90;100.00;95907.53;5134058;27;20514;-56
2022/07/18 03:44:10;;;;;;;0.40;0.30;;;;;;;18.42;100.00;95921.56;5134209;27;20502;-56
2022/07/18 03:46:39;;;;;;;0.60;0.47;;;;;;;18.10;100.00;95932.47;5133640;27;20470;-56
2022/07/18 03:49:07;;;;;;;0.50;0.50;;;;;;;17.90;100.00;95930.22;5134336;27;20832;-56
2022/07/18 03:51:36;;;;;;;2.30;0.50;;;;;;;17.93;100.00;95938.47;5133595;27;20431;-56
2022/07/18 03:54:04;;;;;;;0.73;0.73;;;;;;;17.99;100.00;95937.25;5134276;27;20501;-56
2022/07/18 03:56:34;;;;;;;1.33;1.23;;;;;;;18.21;100.00;95936.53;5133816;27;20419;-56
2022/07/18 03:59:02;;;;;;;0.67;0.57;;;;;;;18.56;100.00;95941.13;5133918;27;20454;-56
2022/07/18 04:01:31;;;;;;;1.93;0.70;;;;;;;18.82;100.00;95949.41;5133309;27;20478;-56
2022/07/18 04:03:59;;;;;;;0.40;0.40;;;;;;;18.60;100.00;95955.53;5132543;27;20426;-56
2022/07/18 04:06:28;;;;;;;0.57;0.43;;;;;;;19.20;100.00;95957.84;5131563;27;20438;-55
2022/07/18 04:08:57;;;;;;;0.63;0.63;;;;;;;19.07;100.00;95953.34;5131900;27;20819;-55
2022/07/18 04:11:25;;;;;;;0.80;0.80;;;;;;;19.33;100.00;95973.06;5131795;27;20907;-55
2022/07/18 04:13:55;;;;;;;0.50;0.33;;;;;;;19.33;100.00;95951.56;5131376;27;20465;-55
2022/07/18 04:16:24;;;;;;;0.60;0.47;;;;;;;19.36;100.00;95945.59;5131279;27;20999;-55
2022/07/18 04:18:53;;;;;;;0.50;0.37;;;;;;;19.42;100.00;95947.88;5131467;27;20991;-55
2022/07/18 04:21:21;;;;;;;2.07;1.97;;;;;;;19.08;100.00;95933.41;5133464;27;20462;-55
2022/07/18 04:23:50;;;;;;;2.00;0.40;;;;;;;19.21;100.00;95951.34;5135624;27;20426;-55
2022/07/18 04:26:19;;;;;;;0.87;0.37;;;;;;;19.24;100.00;95945.38;5133555;27;20490;-55
2022/07/18 04:28:47;;;;;;;0.60;0.60;;;;;;;19.56;100.00;95951.25;5133570;27;20426;-55
2022/07/18 04:31:17;;;;;;;0.70;0.63;;;;;;;19.80;100.00;95942.00;5133433;27;20456;-56
2022/07/18 04:33:46;;;;;;;0.47;0.30;;;;;;;19.99;100.00;95956.75;5133591;27;20443;-56
2022/07/18 04:36:14;;;;;;;0.40;0.30;;;;;;;20.17;100.00;95949.53;5133196;27;20498;-57
2022/07/18 04:38:42;;;;;;;0.50;0.40;;;;;;;20.29;100.00;95952.41;5133566;27;20497;-57
2022/07/18 04:41:11;;;;;;;0.50;0.37;;;;;;;20.41;100.00;95946.44;5133023;27;20462;-57
2022/07/18 04:43:39;;;;;;;0.50;0.43;;;;;;;20.52;100.00;95942.28;5132965;27;20455;-56
2022/07/18 04:46:08;;;;;;;0.40;0.20;;;;;;;20.61;100.00;95941.22;5133030;27;20442;-56
2022/07/18 04:48:38;;;;;;;1.10;0.40;;;;;;;20.62;100.00;95941.97;5133100;27;20434;-56
2022/07/18 04:51:06;;;;;;;0.43;0.30;;;;;;;20.62;100.00;95945.47;5133292;27;20821;-56
2022/07/18 04:53:35;;;;;;;0.60;0.33;;;;;;;20.33;100.00;95925.66;5132969;27;20487;-56
2022/07/18 04:56:04;;;;;;;0.50;0.40;;;;;;;20.69;100.00;95934.22;5132877;27;20423;-56
2022/07/18 04:58:32;;;;;;;0.50;0.40;;;;;;;20.91;100.00;95931.34;5133065;27;20454;-56
2022/07/18 05:01:01;;;;;;;0.50;0.40;;;;;;;20.83;100.00;95930.25;5132545;27;20509;-56
2022/07/18 05:03:29;;;;;;;0.40;0.30;;;;;;;20.92;100.00;95939.09;5132343;27;20509;-56
2022/07/18 05:05:59;;;;;;;0.50;0.30;;;;;;;21.03;100.00;95920.69;5133083;27;20832;-56
2022/07/18 05:08:27;;;;;;;0.60;0.50;;;;;;;21.07;100.00;95915.50;5132702;27;20462;-57
2022/07/18 05:10:56;;;;;;;0.50;0.30;;;;;;;20.65;100.00;95927.88;5133337;27;20456;-56
2022/07/18 05:13:24;;;;;;;0.50;0.33;;;;;;;21.04;100.00;95926.88;5132775;27;20523;-57
2022/07/18 05:15:53;;;;;;;0.53;0.53;;;;;;;21.19;100.00;95934.50;5132616;27;20541;-56
2022/07/18 05:18:21;;;;;;;0.40;0.30;;;;;;;21.65;100.00;95937.22;5132244;27;20530;-63
2022/07/18 05:20:50;;;;;;;0.50;0.30;;;;;;;21.56;100.00;95938.34;5132717;27;20854;-63
2022/07/18 05:23:19;;;;;;;0.50;0.40;;;;;;;21.34;100.00;95932.09;5132515;27;20940;-62
2022/07/18 05:25:48;;;;;;;0.40;0.20;;;;;;;21.62;100.00;95937.06;5132746;28;20462;-57
2022/07/18 05:28:16;;;;;;;0.57;0.50;;;;;;;21.62;100.00;95926.25;5132490;28;20517;-57
2022/07/18 05:30:45;;;;;;;0.50;0.40;;;;;;;21.35;100.00;95928.25;5132366;28;20924;-57
2022/07/18 05:33:13;;;;;;;1.00;0.73;;;;;;;21.33;100.00;95949.34;5132797;28;20864;-56
2022/07/18 05:35:43;;;;;;;0.50;0.50;;;;;;;21.09;100.00;95949.13;5132428;28;20450;-53
2022/07/18 05:38:13;;;;;;;0.50;0.40;;;;;;;21.17;100.00;95947.50;5132530;28;20458;-53
2022/07/18 05:40:43;;;;;;;0.47;0.30;;;;;;;20.94;100.00;95954.19;5131928;28;20479;-54
2022/07/18 05:43:11;;;;;;;2.90;0.40;;;;;;;21.59;100.00;95951.19;5132408;28;20450;-57
2022/07/18 05:45:40;;;;;;;0.50;0.40;;;;;;;21.76;100.00;95953.81;5132516;28;20499;-57
2022/07/18 05:48:09;;;;;;;0.50;0.47;;;;;;;22.14;100.00;95949.19;5132386;28;20975;-57
2022/07/18 05:50:37;;;;;;;0.50;0.40;;;;;;;21.67;100.00;95944.97;5132622;28;20446;-57
2022/07/18 05:53:05;;;;;;;0.50;0.33;;;;;;;22.30;100.00;95936.72;5132380;28;20457;-56
2022/07/18 05:55:34;;;;;;;5.80;0.60;;;;;;;21.69;100.00;95931.94;5132217;28;20464;-57
2022/07/18 05:58:04;;;;;;;2.20;0.60;;;;;;;21.84;100.00;95937.59;5132318;28;20414;-57
2022/07/18 06:00:33;;;;;;;1.03;0.67;;;;;;;21.33;100.00;95897.31;5131972;28;20418;-56
2022/07/18 06:03:01;;;;;;;0.40;0.30;;;;;;;22.08;100.00;95945.13;5132162;28;20494;-56
2022/07/18 06:05:31;;;;;;;0.73;0.73;;;;;;;21.81;100.00;95945.53;5132490;28;20430;-57
2022/07/18 06:07:59;;;;;;;0.40;0.30;;;;;;;21.56;100.00;95946.44;5132024;28;20928;-56
2022/07/18 06:10:28;;;;;;;0.87;0.50;;;;;;;21.89;100.00;95944.72;5131967;28;20459;-56
2022/07/18 06:12:56;;;;;;;1.00;0.40;;;;;;;22.76;100.00;95946.56;5132829;27;20422;-56
2022/07/18 06:15:26;;;;;;;1.10;1.00;;;;;;;22.81;100.00;95943.66;5135591;27;20997;-56
2022/07/18 06:17:55;;;;;;;1.90;0.70;;;;;;;22.92;100.00;95903.50;5135929;27;20427;-56
2022/07/18 06:20:24;;;;;;;0.70;0.70;;;;;;;23.48;94.43;95943.31;5136124;27;20865;-56
2022/07/18 06:22:52;;;;;;;0.87;0.87;;;;;;;23.94;92.99;95934.78;5135992;27;20553;-56
2022/07/18 06:25:21;;;;;;;1.13;0.57;;;;;;;24.19;82.73;95937.50;5135986;27;20445;-56
2022/07/18 06:27:49;;;;;;;0.70;0.67;;;;;;;24.29;82.60;95932.41;5135679;27;20430;-56
2022/07/18 06:30:17;;;;;;;0.40;0.33;;;;;;;24.12;75.55;95931.88;5135488;27;20521;-56
2022/07/18 06:32:47;;;;;;;0.87;0.60;;;;;;;24.33;70.65;95924.41;5135534;27;20973;-56
2022/07/18 06:35:16;;;;;;;0.60;0.60;;;;;;;24.97;64.29;95927.81;5135419;27;20415;-56
2022/07/18 06:37:45;;;;;;;1.23;0.40;;;;;;;24.95;56.36;95924.66;5135835;27;20791;-57
2022/07/18 06:40:13;;;;;;;0.40;0.37;;;;;;;25.04;67.64;95927.25;5135515;27;20495;-57
2022/07/18 06:42:42;;;;;;;1.70;0.50;;;;;;;24.89;54.81;95917.16;5135580;27;20568;-57
2022/07/18 06:45:11;;;;;;;0.50;0.40;;;;;;;25.37;55.99;95910.66;5135268;27;20514;-57
2022/07/18 06:47:42;;;;;;;0.70;0.50;;;;;;;25.62;52.89;95920.25;5135350;27;20421;-56
2022/07/18 06:50:13;;;;;;;0.40;0.30;;;;;;;26.33;52.21;95914.59;5135455;27;20415;-55
2022/07/18 06:52:43;;;;;;;0.40;0.30;;;;;;;25.83;49.34;95904.50;5135229;27;20442;-57
2022/07/18 06:55:13;;;;;;;0.40;0.30;;;;;;;26.57;51.64;95899.94;5135270;27;20491;-56
2022/07/18 06:57:43;;;;;;;0.70;0.50;;;;;;;25.90;47.16;95872.06;5135458;27;20502;-57
2022/07/18 07:00:13;;;;;;;0.50;0.40;;;;;;;26.38;49.48;95887.13;5135155;27;20487;-57
2022/07/18 07:02:42;;;;;;;0.40;0.33;;;;;;;26.90;48.58;95898.34;5134899;27;20566;-56
2022/07/18 07:05:13;;;;;;;0.53;0.50;;;;;;;26.74;48.08;95885.94;5135070;27;20483;-57
2022/07/18 07:07:42;;;;;;;0.40;0.40;;;;;;;26.70;45.77;95882.34;5135046;27;20462;-55
2022/07/18 07:10:17;;;;;;;0.50;0.43;;;;;;;25.98;47.06;95824.91;5134877;27;20505;-56
2022/07/18 07:12:48;;;;;;;0.50;0.30;;;;;;;26.64;46.58;95894.66;5134922;27;20438;-59
2022/07/18 07:15:19;;;;;;;0.50;0.40;;;;;;;27.19;44.69;95893.44;5134806;27;20450;-59
2022/07/18 07:17:48;;;;;;;0.50;0.50;;;;;;;27.82;45.95;95894.56;5134843;27;20939;-59
2022/07/18 07:20:20;;;;;;;0.50;0.40;;;;;;;28.13;47.30;95883.34;5134533;27;20441;-59
2022/07/18 07:22:50;;;;;;;0.70;0.70;;;;;;;27.28;46.26;95888.53;5134257;27;21011;-58
2022/07/18 07:25:20;;;;;;;1.07;0.70;;;;;;;27.78;45.42;95887.47;5134046;27;20570;-59
2022/07/18 07:27:48;;;;;;;0.53;0.50;;;;;;;27.35;43.64;95891.41;5134702;27;20456;-59
2022/07/18 07:30:17;;;;;;;0.73;0.60;;;;;;;27.30;43.96;95880.81;5134254;27;20419;-60
2022/07/18 07:32:47;;;;;;;0.53;0.53;;;;;;;27.64;46.12;95888.81;5134792;27;20461;-60
2022/07/18 07:35:19;;;;;;;0.80;0.80;;;;;;;27.57;44.20;95885.19;5134828;27;20445;-60
2022/07/18 07:37:49;;;;;;;0.40;0.30;;;;;;;27.77;44.67;95880.44;5134685;27;20485;-61
2022/07/18 07:40:18;;;;;;;0.40;0.30;;;;;;;28.08;42.62;95875.50;5134477;27;20422;-60
2022/07/18 07:42:47;;;;;;;1.30;0.60;;;;;;;28.67;41.59;95872.03;5134177;27;20572;-60
2022/07/18 07:45:16;;;;;;;0.47;0.47;;;;;;;28.89;41.49;95852.03;5134244;27;20913;-60
2022/07/18 07:47:45;;;;;;;0.70;0.70;;;;;;;28.67;40.28;95852.94;5134123;27;20427;-60
2022/07/18 07:50:14;;;;;;;0.37;0.30;;;;;;;29.25;40.53;95855.94;5134365;27;20414;-60
2022/07/18 07:52:44;;;;;;;0.50;0.50;;;;;;;28.98;38.23;95856.41;5134119;27;20450;-59
2022/07/18 07:55:12;;;;;;;1.27;0.40;;;;;;;27.97;40.34;95852.75;5134009;27;20935;-59
2022/07/18 07:57:40;;;;;;;0.50;0.40;;;;;;;27.99;39.20;95855.09;5133320;27;20459;-59
2022/07/18 08:00:10;;;;;;;0.50;0.50;;;;;;;28.86;40.53;95854.72;5134300;27;20517;-59
2022/07/18 08:02:50;;;;;;;0.40;0.37;;;;;;;29.11;38.44;95850.31;5133769;27;21070;-59
2022/07/18 08:05:27;;;;;;;0.53;0.40;;;;;;;30.25;37.16;95854.78;5133710;27;20444;-59
2022/07/18 08:07:57;;;;;;;0.60;0.57;;;;;;;29.69;35.38;95852.41;5134081;27;20426;-59
2022/07/18 08:10:26;;;;;;;0.60;0.40;;;;;;;29.79;36.40;95849.00;5133773;27;20932;-60
2022/07/18 08:12:55;;;;;;;0.60;0.40;;;;;;;30.31;35.56;95847.78;5133693;27;20469;-59
2022/07/18 08:15:23;;;;;;;0.67;0.60;;;;;;;30.62;35.44;95847.16;5133421;27;20426;-59
2022/07/18 08:17:52;;;;;;;0.93;0.73;;;;;;;30.07;36.84;95841.78;5133562;27;20509;-60
2022/07/18 08:20:21;;;;;;;0.67;0.40;;;;;;;29.50;36.00;95826.09;5133580;27;20522;-61
2022/07/18 08:22:59;;;;;;;2.40;0.90;;;;;;;30.33;35.63;95834.50;5133227;27;20497;-60
2022/07/18 08:25:29;;;;;;;0.70;0.70;;;;;;;30.71;35.91;95837.44;5133257;27;20468;-61
2022/07/18 08:27:58;;;;;;;0.63;0.60;;;;;;;29.75;35.29;95840.78;5132377;27;20486;-61
2022/07/18 08:30:27;;;;;;;0.63;0.57;;;;;;;30.33;37.49;95837.25;5133346;27;20423;-61
2022/07/18 08:32:56;;;;;;;0.40;0.40;;;;;;;30.43;36.90;95837.34;5133271;27;20457;-62
2022/07/18 08:35:24;;;;;;;0.50;0.40;;;;;;;30.93;34.36;95829.31;5133090;27;20975;-62
2022/07/18 08:37:52;;;;;;;0.40;0.30;;;;;;;30.94;33.13;95822.69;5132617;27;20497;-62
2022/07/18 08:40:22;;;;;;;0.60;0.60;;;;;;;30.56;34.27;95800.22;5133437;27;20566;-61
2022/07/18 08:42:52;;;;;;;0.50;0.50;;;;;;;30.61;33.83;95794.38;5132980;27;20520;-61
2022/07/18 08:45:43;;;;;;;0.40;0.40;;;;;;;30.68;36.35;95831.97;5132815;27;20439;-61
2022/07/18 08:48:14;;;;;;;0.60;0.60;;;;;;;30.26;34.60;95804.41;5133374;27;21032;-61
2022/07/18 08:50:44;;;;;;;0.87;0.50;;;;;;;30.22;33.54;95792.66;5132924;27;20427;-60
2022/07/18 08:53:13;;;;;;;0.73;0.40;;;;;;;30.36;34.72;95817.38;5133195;27;20422;-61
2022/07/18 08:55:44;;;;;;;0.53;0.40;;;;;;;31.60;33.08;95804.78;5133487;27;20513;-61
2022/07/18 08:58:14;;;;;;;0.40;0.30;;;;;;;31.26;32.16;95818.81;5133053;27;20426;-61
2022/07/18 09:01:03;;;;;;;0.50;0.40;;;;;;;31.96;32.25;95817.25;5132978;27;20448;-61
2022/07/18 09:03:41;;;;;;;0.40;0.30;;;;;;;31.94;32.30;95789.44;5132756;27;20470;-61
2022/07/18 09:06:12;;;;;;;0.40;0.40;;;;;;;31.62;31.94;95764.84;5131900;27;20519;-60
2022/07/18 09:08:59;;;;;;;0.40;0.30;;;;;;;31.69;31.22;95818.88;5132636;27;20975;-60
2022/07/18 09:11:29;;;;;;;0.40;0.30;;;;;;;31.05;31.88;95813.31;5132388;27;20435;-60
2022/07/18 09:14:33;;;;;;;0.40;0.30;;;;;;;30.45;31.87;95761.13;5132359;27;20820;-60
2022/07/18 09:17:07;;;;;;;0.40;0.30;;;;;;;31.25;31.85;95808.25;5131189;27;20533;-60
2022/07/18 09:19:37;;;;;;;0.63;0.50;;;;;;;30.04;31.49;95680.47;5132144;27;20483;-60
2022/07/18 09:22:18;;;;;;;0.40;0.30;;;;;;;30.98;30.77;95785.13;5132581;27;20535;-60
2022/07/18 09:25:01;;;;;;;0.50;0.50;;;;;;;30.96;31.03;95763.63;5132645;27;20540;-60
2022/07/18 09:27:37;;;;;;;0.43;0.43;;;;;;;31.63;31.64;95793.81;5132926;28;20443;-60
2022/07/18 09:30:24;;;;;;;0.50;0.40;;;;;;;31.59;29.91;95800.47;5132565;28;20468;-60
2022/07/18 09:32:56;;;;;;;6.37;0.50;;;;;;;32.42;31.29;95796.00;5132399;28;20471;-60
2022/07/18 09:35:27;;;;;;;0.40;0.30;;;;;;;32.08;29.81;95796.91;5132401;28;20471;-60
2022/07/18 09:38:08;;;;;;;0.40;0.30;;;;;;;32.52;30.00;95800.69;5132419;28;20466;-61
2022/07/18 09:40:38;;;;;;;0.40;0.40;;;;;;;32.51;29.34;95754.41;5132671;28;20602;-60
2022/07/18 09:43:09;;;;;;;0.53;0.53;;;;;;;32.64;29.46;95791.22;5131999;28;20466;-61
2022/07/18 09:45:41;;;;;;;0.40;0.40;;;;;;;32.47;28.52;95792.06;5132312;28;20462;-61
2022/07/18 09:48:12;;;;;;;0.43;0.40;;;;;;;32.76;29.27;95746.06;5133461;27;20954;-60
2022/07/18 09:50:42;;;;;;;0.40;0.30;;;;;;;33.11;28.62;95743.91;5136359;27;20434;-59
2022/07/18 09:53:16;;;;;;;0.60;0.43;;;;;;;33.35;27.61;95780.59;5136392;27;20491;-59
2022/07/18 09:56:04;;;;;;;0.50;0.50;;;;;;;32.75;27.24;95783.72;5136399;27;20422;-59
2022/07/18 09:58:37;;;;;;;0.40;0.30;;;;;;;32.51;27.40;95759.91;5136377;27;20905;-60
2022/07/18 10:01:07;;;;;;;0.50;0.50;;;;;;;32.37;26.34;95674.91;5136608;27;20422;-59
2022/07/18 10:03:37;;;;;;;0.40;0.37;;;;;;;32.96;26.84;95771.84;5135994;27;21024;-58
2022/07/18 10:06:05;;;;;;;0.70;0.50;;;;;;;32.33;27.25;95781.94;5136274;27;20433;-58
2022/07/18 10:08:35;;;;;;;0.40;0.30;;;;;;;32.99;26.98;95765.53;5136013;27;20419;-57
2022/07/18 10:11:06;;;;;;;0.40;0.30;;;;;;;33.67;27.20;95772.91;5136015;27;20432;-58
2022/07/18 10:13:38;;;;;;;0.40;0.30;;;;;;;34.21;26.86;95773.16;5136093;27;20452;-58
2022/07/18 10:16:07;;;;;;;0.40;0.30;;;;;;;34.21;26.58;95771.19;5135959;27;20478;-58
2022/07/18 10:18:37;;;;;;;0.40;0.40;;;;;;;33.65;27.13;95733.25;5135859;27;20443;-58
2022/07/18 10:21:09;;;;;;;0.40;0.40;;;;;;;34.14;25.48;95775.97;5136063;27;20512;-58
2022/07/18 10:23:41;;;;;;;0.40;0.40;;;;;;;33.16;25.33;95764.66;5136142;27;20551;-58
2022/07/18 10:26:14;;;;;;;0.50;0.40;;;;;;;33.65;25.81;95766.25;5135786;27;20516;-58
2022/07/18 10:29:15;;;;;;;0.47;0.43;;;;;;;33.17;25.88;95774.44;5135971;27;20468;-58
2022/07/18 10:32:02;;;;;;;0.40;0.30;;;;;;;32.80;25.65;95766.03;5135558;27;20942;-58
2022/07/18 10:34:34;;;;;;;0.40;0.40;;;;;;;32.87;25.52;95766.78;5135836;27;20540;-58
2022/07/18 10:37:10;;;;;;;0.80;0.80;;;;;;;32.29;26.07;95676.09;5135341;27;20479;-58
2022/07/18 10:39:42;;;;;;;0.63;0.40;;;;;;;33.83;25.43;95740.13;5134477;27;21015;-58
2022/07/18 10:42:19;;;;;;;0.40;0.30;;;;;;;34.17;25.22;95759.44;5135405;27;20432;-58
2022/07/18 10:44:49;;;;;;;0.40;0.30;;;;;;;33.86;24.66;95738.53;5135231;27;20637;-57
2022/07/18 10:47:20;;;;;;;0.40;0.37;;;;;;;34.51;23.87;95756.66;5135478;27;20461;-57
2022/07/18 10:50:06;;;;;;;1.33;0.40;;;;;;;35.01;24.51;95752.06;5135661;27;20426;-57
2022/07/18 10:53:07;;;;;;;0.30;0.30;;;;;;;34.98;25.16;95728.09;5135440;27;20515;-57
2022/07/18 10:55:48;;;;;;;0.30;0.27;;;;;;;33.77;25.21;95739.03;5051723;28;20826;-57
2022/07/18 10:58:18;;;;;;;0.50;0.40;;;;;;;34.30;26.12;95745.94;5051442;28;20631;-57
2022/07/18 11:00:51;;;;;;;0.47;0.30;;;;;;;35.34;25.52;95733.09;5096866;27;20469;-57
2022/07/18 11:03:29;;;;;;;0.30;0.30;;;;;;;34.67;25.74;95745.84;5135005;27;21023;-56
2022/07/18 11:05:59;;;;;;;0.47;0.37;;;;;;;34.55;25.22;95729.91;5134950;27;20444;-56
2022/07/18 11:08:28;;;;;;;0.40;0.30;;;;;;;35.13;25.66;95733.41;5134675;27;20884;-57
2022/07/18 11:11:12;;;;;;;0.50;0.37;;;;;;;33.59;24.89;95740.38;5134841;27;20436;-57
2022/07/18 11:13:48;;;;;;;0.40;0.30;;;;;;;32.66;25.10;95672.81;5134627;27;20431;-57
2022/07/18 11:16:21;;;;;;;0.40;0.30;;;;;;;34.23;25.65;95730.25;5134335;27;20724;-57
2022/07/18 11:19:21;;;;;;;0.30;0.27;;;;;;;34.60;25.34;95723.16;5134346;27;20501;-57
2022/07/18 11:21:59;;;;;;;0.40;0.30;;;;;;;34.90;23.48;95712.88;5134601;27;20425;-57
2022/07/18 11:24:28;;;;;;;0.43;0.40;;;;;;;34.87;23.70;95723.94;5134286;27;20497;-58
2022/07/18 11:26:57;;;;;;;0.43;0.37;;;;;;;35.60;23.05;95721.22;5134259;27;20464;-57
2022/07/18 11:29:25;;;;;;;0.50;0.30;;;;;;;33.92;23.59;95723.16;5134415;27;20216;-58
2022/07/18 11:31:57;;;;;;;0.43;0.30;;;;;;;35.14;23.09;95715.69;5134336;27;20284;-57
2022/07/18 11:34:26;;;;;;;0.40;0.30;;;;;;;35.41;23.62;95705.38;5134361;27;20227;-57
2022/07/18 11:37:09;;;;;;;1.17;1.10;;;;;;;34.25;22.85;95710.59;5134170;27;20199;-57
2022/07/18 11:39:38;;;;;;;0.40;0.30;;;;;;;33.82;22.56;95722.09;5134297;27;20192;-57
2022/07/18 11:42:09;;;;;;;0.30;0.27;;;;;;;34.95;22.86;95712.41;5134320;27;20622;-58
2022/07/18 11:44:40;;;;;;;2.40;0.40;;;;;;;35.29;23.10;95709.53;5133965;27;20215;-57
2022/07/18 11:47:11;;;;;;;0.40;0.30;;;;;;;34.97;22.56;95712.75;5133824;27;20688;-56
2022/07/18 11:49:40;;;;;;;0.63;0.63;;;;;;;34.47;24.05;95709.13;5133970;27;21061;-57
2022/07/18 11:52:09;;;;;;;0.70;0.30;;;;;;;33.88;24.75;95703.13;5133783;27;20185;-57